Adak, Alaska
Current Conditions -  °F | °C
As of 10:16 AM on Friday 19 Dec 2014 (Local Time) from PADK Reporting Station
Overcast Overcast  
Wind Chill: 28°   Ceiling: 1800
Heat Index: 37°   Visibility: 2.5mi
Dew Point: 36°   Wind: 17mph
Humidity: 93%   Direction: 30°NNE
Pressure: 28.64"   Gusts: 25mph
Location:  51.88°N, 176.66°W
Report Text: PADK 192016Z AUTO 03015G22KT 2 1/2SM FEW009 OVC018 03/02 A2864 RMK AO1
Loading
Personal Weather Stations






























Interactive Weather Map New forecast layout! Learn more

10-Day Weather Forecast

Advertisements
Track Severe Weather on mobile